createdAt,value
2022-08-28T00:02:15.634Z,19.20
2022-08-28T00:05:10.501Z,14.50
2022-08-28T00:07:53.483Z,17.10
2022-08-28T00:10:44.239Z,13.30
2022-08-28T00:13:39.466Z,17.90
2022-08-28T00:16:39.206Z,15.20
2022-08-28T00:19:41.963Z,15.30
2022-08-28T00:22:38.878Z,14.00
2022-08-28T00:25:30.842Z,13.80
2022-08-28T00:28:39.678Z,17.10
2022-08-28T00:31:13.502Z,12.90
2022-08-28T00:33:51.582Z,13.60
2022-08-28T00:36:31.219Z,16.50
2022-08-28T00:39:26.180Z,15.70
2022-08-28T00:42:20.678Z,15.40
2022-08-28T00:44:57.978Z,15.50
2022-08-28T00:47:51.449Z,18.00
2022-08-28T00:51:00.813Z,13.00
2022-08-28T00:53:35.744Z,16.60
2022-08-28T00:56:15.312Z,17.70
2022-08-28T00:58:57.639Z,19.10
2022-08-28T01:01:32.515Z,17.50
2022-08-28T01:04:41.961Z,16.10
2022-08-28T01:07:20.095Z,16.50
2022-08-28T01:10:11.286Z,13.20
2022-08-28T01:13:10.508Z,15.00
2022-08-28T01:16:12.685Z,17.50
2022-08-28T01:19:08.822Z,17.50
2022-08-28T01:22:10.981Z,14.80
2022-08-28T01:24:54.207Z,15.90
2022-08-28T01:27:30.164Z,15.70
2022-08-28T01:30:25.038Z,14.20
2022-08-28T01:33:12.535Z,17.80
2022-08-28T01:36:07.773Z,13.30
2022-08-28T01:41:37.398Z,14.40
2022-08-28T01:44:11.003Z,12.80
2022-08-28T01:47:19.867Z,16.80
2022-08-28T01:49:51.760Z,14.60
2022-08-28T01:52:36.440Z,22.00
2022-08-28T01:55:22.239Z,17.50
2022-08-28T01:58:14.324Z,18.50
2022-08-28T02:00:57.633Z,18.70
2022-08-28T02:03:49.325Z,18.80
2022-08-28T02:06:30.609Z,17.90
2022-08-28T02:09:03.022Z,18.30
2022-08-28T02:11:37.299Z,21.80
2022-08-28T02:14:39.395Z,16.30
2022-08-28T02:17:12.269Z,14.90
2022-08-28T02:19:41.141Z,15.50
2022-08-28T02:22:47.510Z,19.90
2022-08-28T02:25:34.299Z,17.20
2022-08-28T02:28:31.468Z,23.80
2022-08-28T02:31:20.360Z,15.60
2022-08-28T02:34:06.052Z,16.30
2022-08-28T02:36:50.126Z,18.30
2022-08-28T02:39:22.160Z,18.40
2022-08-28T02:42:31.570Z,14.80
2022-08-28T02:45:11.859Z,18.50
2022-08-28T02:47:57.205Z,21.70
2022-08-28T02:50:26.095Z,18.30
2022-08-28T02:52:58.468Z,19.10
2022-08-28T02:56:16.716Z,18.30
2022-08-28T02:58:52.975Z,15.90
2022-08-28T03:01:24.367Z,17.80
2022-08-28T03:03:56.496Z,14.40
2022-08-28T03:06:27.742Z,18.90
2022-08-28T03:09:09.697Z,14.50
2022-08-28T03:11:56.530Z,22.00
2022-08-28T03:14:34.861Z,17.40
2022-08-28T03:17:26.488Z,17.50
2022-08-28T03:20:21.618Z,20.40
2022-08-28T03:23:20.295Z,21.10
2022-08-28T03:26:24.319Z,15.90
2022-08-28T03:29:16.367Z,17.30
2022-08-28T03:34:37.560Z,17.10
2022-08-28T03:37:06.339Z,17.10
2022-08-28T03:39:37.673Z,17.30
2022-08-28T03:42:06.583Z,16.70
2022-08-28T03:44:38.415Z,15.60
2022-08-28T03:47:07.439Z,19.20
2022-08-28T03:49:36.342Z,18.10
2022-08-28T03:52:21.354Z,15.40
2022-08-28T03:55:00.281Z,14.40
2022-08-28T03:57:47.196Z,14.80
2022-08-28T04:00:16.639Z,17.30
2022-08-28T04:03:09.196Z,21.00
2022-08-28T04:05:53.127Z,14.90
2022-08-28T04:08:50.352Z,19.20
2022-08-28T04:11:30.419Z,19.40
2022-08-28T04:14:31.889Z,16.50
2022-08-28T04:17:07.687Z,14.10
2022-08-28T04:19:38.812Z,14.00
2022-08-28T04:22:14.956Z,18.50
2022-08-28T04:24:50.185Z,14.90
2022-08-28T04:27:27.983Z,15.30
2022-08-28T04:30:11.952Z,14.30
2022-08-28T04:32:59.763Z,16.70
2022-08-28T04:35:49.542Z,14.90
2022-08-28T04:38:22.223Z,18.60
2022-08-28T04:41:18.173Z,16.70
2022-08-28T04:43:52.977Z,16.60
2022-08-28T04:46:32.963Z,15.60
2022-08-28T04:49:52.751Z,16.00
2022-08-28T04:52:39.880Z,15.50
2022-08-28T04:55:12.535Z,16.30
2022-08-28T04:57:47.334Z,15.60
2022-08-28T05:00:35.528Z,15.60
2022-08-28T05:03:14.200Z,14.50
2022-08-28T05:05:58.046Z,15.60
2022-08-28T05:08:38.464Z,15.70
2022-08-28T05:11:34.395Z,14.10
2022-08-28T05:14:23.764Z,13.50
2022-08-28T05:17:22.647Z,15.00
2022-08-28T05:19:59.697Z,12.70
2022-08-28T05:22:39.989Z,15.20
2022-08-28T05:25:20.359Z,14.50
2022-08-28T05:27:52.048Z,18.60
2022-08-28T05:30:29.400Z,13.30
2022-08-28T05:33:05.422Z,17.30
2022-08-28T05:35:41.656Z,16.90
2022-08-28T05:38:36.346Z,18.90
2022-08-28T05:41:30.532Z,17.80
2022-08-28T05:44:06.265Z,19.70
2022-08-28T05:46:58.595Z,18.20
2022-08-28T05:49:33.560Z,21.20
2022-08-28T05:52:12.284Z,14.30
2022-08-28T05:54:48.238Z,18.20
2022-08-28T05:57:17.823Z,16.70
2022-08-28T05:59:53.904Z,22.00
2022-08-28T06:02:29.143Z,13.20
2022-08-28T06:05:03.871Z,13.80
2022-08-28T06:07:41.672Z,15.20
2022-08-28T06:10:19.698Z,14.90
2022-08-28T06:12:58.610Z,15.70
2022-08-28T06:15:33.764Z,15.30
2022-08-28T06:18:05.855Z,17.50
2022-08-28T06:20:45.752Z,13.90
2022-08-28T06:23:24.141Z,19.10
2022-08-28T06:26:04.464Z,18.80
2022-08-28T06:28:39.047Z,15.30
2022-08-28T06:34:35.056Z,16.40
2022-08-28T06:37:08.082Z,15.10
2022-08-28T06:39:39.839Z,17.10
2022-08-28T06:42:17.158Z,15.00
2022-08-28T06:45:03.801Z,13.80
2022-08-28T06:47:34.775Z,17.10
2022-08-28T06:50:07.593Z,18.20
2022-08-28T06:52:46.454Z,12.50
2022-08-28T06:55:18.649Z,16.40
2022-08-28T06:57:52.707Z,14.70
2022-08-28T07:00:22.062Z,15.20
2022-08-28T07:02:53.281Z,13.70
2022-08-28T07:05:22.884Z,13.20
2022-08-28T07:07:55.493Z,14.00
2022-08-28T07:10:33.804Z,13.70
2022-08-28T07:13:04.992Z,15.00
2022-08-28T07:15:50.549Z,12.30
2022-08-28T07:18:33.492Z,17.30
2022-08-28T07:21:12.697Z,19.60
2022-08-28T07:23:42.969Z,16.10
2022-08-28T07:26:26.412Z,17.20
2022-08-28T07:29:00.645Z,14.60
2022-08-28T07:31:44.748Z,13.10
2022-08-28T07:34:17.646Z,14.40
2022-08-28T07:36:52.823Z,15.10
2022-08-28T07:39:24.407Z,13.40
2022-08-28T07:41:58.329Z,19.00
2022-08-28T07:44:51.955Z,15.40
2022-08-28T07:47:34.260Z,13.70
2022-08-28T07:50:03.670Z,16.20
2022-08-28T07:52:46.923Z,14.10
2022-08-28T07:55:15.679Z,20.90
2022-08-28T07:58:00.043Z,16.60
2022-08-28T08:00:34.176Z,13.90
2022-08-28T08:03:11.038Z,16.60
2022-08-28T08:05:59.881Z,16.90
2022-08-28T08:08:43.211Z,16.80
2022-08-28T08:11:23.991Z,13.00
2022-08-28T08:13:57.847Z,14.20
2022-08-28T08:16:38.852Z,16.20
2022-08-28T08:19:15.330Z,16.10
2022-08-28T08:21:54.855Z,14.40
2022-08-28T08:24:32.879Z,18.10
2022-08-28T08:27:07.629Z,18.40
2022-08-28T08:29:42.118Z,17.40
2022-08-28T08:32:17.349Z,16.30
2022-08-28T08:34:49.941Z,17.20
2022-08-28T08:37:24.152Z,12.20
2022-08-28T08:40:01.807Z,19.30
2022-08-28T08:42:40.884Z,15.20
2022-08-28T08:45:21.756Z,14.30
2022-08-28T08:47:56.049Z,16.90
2022-08-28T08:50:39.294Z,15.70
2022-08-28T08:53:48.212Z,15.30
2022-08-28T08:56:24.184Z,15.40
2022-08-28T08:59:10.469Z,15.80
2022-08-28T09:04:35.267Z,15.40
2022-08-28T09:07:38.278Z,16.70
2022-08-28T09:10:29.198Z,12.80
2022-08-28T09:13:26.451Z,15.20
2022-08-28T09:16:06.004Z,13.70
2022-08-28T09:18:47.271Z,14.50
2022-08-28T09:21:29.585Z,14.40
2022-08-28T09:24:11.979Z,15.20
2022-08-28T09:26:52.430Z,11.40
2022-08-28T09:29:36.935Z,17.00
2022-08-28T09:32:33.877Z,17.00
2022-08-28T09:35:28.585Z,11.30
2022-08-28T09:38:23.209Z,16.10
2022-08-28T09:41:30.564Z,11.50
2022-08-28T09:43:59.729Z,11.10
2022-08-28T09:46:32.378Z,14.10
2022-08-28T09:49:14.919Z,14.90
2022-08-28T09:52:01.846Z,14.20
2022-08-28T09:54:45.688Z,11.70
2022-08-28T09:57:44.467Z,14.70
2022-08-28T10:00:20.833Z,15.60
2022-08-28T10:03:18.906Z,12.70
2022-08-28T10:06:15.957Z,25.70
2022-08-28T10:09:25.104Z,14.50
2022-08-28T10:12:18.940Z,13.50
2022-08-28T10:15:02.707Z,15.00
2022-08-28T10:18:10.511Z,13.00
2022-08-28T10:20:48.718Z,13.90
2022-08-28T10:23:44.437Z,11.60
2022-08-28T10:26:36.778Z,13.30
2022-08-28T10:29:35.776Z,14.80
2022-08-28T10:32:54.569Z,12.80
2022-08-28T10:35:54.756Z,16.70
2022-08-28T10:38:52.944Z,11.60
2022-08-28T10:41:29.001Z,14.70
2022-08-28T10:44:02.728Z,17.60
2022-08-28T10:46:41.766Z,19.40
2022-08-28T10:49:10.955Z,14.40
2022-08-28T10:52:07.465Z,14.00
2022-08-28T10:54:42.438Z,13.70
2022-08-28T10:57:41.578Z,10.80
2022-08-28T11:00:18.135Z,12.60
2022-08-28T11:03:22.278Z,11.80
2022-08-28T11:06:05.956Z,16.50
2022-08-28T11:08:38.118Z,12.30
2022-08-28T11:11:13.330Z,14.00
2022-08-28T11:14:00.037Z,11.80
2022-08-28T11:16:34.518Z,11.00
2022-08-28T11:19:34.080Z,14.90
2022-08-28T11:22:30.197Z,13.10
2022-08-28T11:25:26.509Z,12.30
2022-08-28T11:28:24.302Z,15.60
2022-08-28T11:30:58.563Z,15.00
2022-08-28T11:33:53.125Z,13.00
2022-08-28T11:36:23.972Z,13.50
2022-08-28T11:38:53.131Z,11.50
2022-08-28T11:41:30.462Z,10.80
2022-08-28T11:44:20.314Z,15.60
2022-08-28T11:46:51.931Z,16.90
2022-08-28T11:49:26.747Z,11.50
2022-08-28T11:52:16.030Z,14.60
2022-08-28T11:54:44.652Z,11.80
2022-08-28T11:57:28.696Z,10.80
2022-08-28T12:00:00.276Z,10.90
2022-08-28T12:02:41.078Z,10.60
2022-08-28T12:05:32.747Z,13.90
2022-08-28T12:08:05.321Z,11.70
2022-08-28T12:10:34.519Z,11.60
2022-08-28T12:13:09.196Z,11.10
2022-08-28T12:15:41.300Z,17.20
2022-08-28T12:18:09.998Z,10.90
2022-08-28T12:20:59.983Z,10.60
2022-08-28T12:23:35.237Z,18.90
2022-08-28T12:26:10.060Z,10.60
2022-08-28T12:28:52.878Z,9.70
2022-08-28T12:32:09.479Z,9.20
2022-08-28T12:34:50.270Z,11.40
2022-08-28T12:37:51.261Z,7.50
2022-08-28T12:40:29.195Z,10.40
2022-08-28T12:43:00.352Z,9.00
2022-08-28T12:48:06.136Z,9.30
2022-08-28T12:50:38.594Z,10.00
2022-08-28T12:53:16.450Z,11.30
2022-08-28T12:55:46.833Z,7.90
2022-08-28T12:58:32.499Z,7.70
2022-08-28T13:01:23.966Z,9.70
2022-08-28T13:04:01.609Z,8.90
2022-08-28T13:06:35.978Z,11.30
2022-08-28T13:09:14.292Z,9.60
2022-08-28T13:11:51.567Z,6.70
2022-08-28T13:14:44.372Z,6.50
2022-08-28T13:17:17.744Z,6.70
2022-08-28T13:20:02.247Z,8.70
2022-08-28T13:22:34.802Z,10.10
2022-08-28T13:25:04.552Z,6.10
2022-08-28T13:27:34.404Z,7.80
2022-08-28T13:30:06.081Z,8.90
2022-08-28T13:32:39.635Z,8.40
2022-08-28T13:35:40.119Z,8.70
2022-08-28T13:38:14.094Z,7.20
2022-08-28T13:40:59.188Z,6.00
2022-08-28T13:43:42.016Z,7.60
2022-08-28T13:46:10.623Z,6.20
2022-08-28T13:51:24.515Z,9.10
2022-08-28T13:53:53.869Z,7.20
2022-08-28T13:56:22.987Z,7.90
2022-08-28T13:58:57.709Z,9.50
2022-08-28T14:01:49.655Z,7.40
2022-08-28T14:04:18.214Z,4.70
2022-08-28T14:06:50.932Z,8.70
2022-08-28T14:09:20.524Z,5.70
2022-08-28T14:11:51.278Z,7.00
2022-08-28T14:14:34.445Z,10.40
2022-08-28T14:17:08.481Z,6.60
2022-08-28T14:19:38.195Z,6.60
2022-08-28T14:22:09.477Z,5.30
2022-08-28T14:24:44.118Z,6.60
2022-08-28T14:27:16.086Z,6.50
2022-08-28T14:29:44.789Z,6.80
2022-08-28T14:32:22.083Z,7.30
2022-08-28T14:34:56.158Z,5.90
2022-08-28T14:37:25.051Z,4.80
2022-08-28T14:39:56.877Z,5.60
2022-08-28T14:42:31.769Z,5.40
2022-08-28T14:45:04.049Z,5.70
2022-08-28T14:47:36.412Z,5.10
2022-08-28T14:50:08.306Z,6.10
2022-08-28T14:52:40.657Z,6.20
2022-08-28T14:55:11.152Z,5.80
2022-08-28T14:57:43.239Z,5.90
2022-08-28T15:00:24.017Z,7.40
2022-08-28T15:02:59.735Z,5.60
2022-08-28T15:05:29.618Z,4.90
2022-08-28T15:08:01.431Z,4.50
2022-08-28T15:10:32.574Z,8.00
2022-08-28T15:13:13.041Z,5.60
2022-08-28T15:15:50.524Z,3.80
2022-08-28T15:18:25.154Z,4.60
2022-08-28T15:21:00.032Z,5.60
2022-08-28T15:23:37.885Z,7.30
2022-08-28T15:26:15.534Z,7.30
2022-08-28T15:28:56.073Z,5.70
2022-08-28T15:31:25.267Z,4.70
2022-08-28T15:33:57.201Z,4.70
2022-08-28T15:36:26.578Z,4.00
2022-08-28T15:39:16.827Z,3.30
2022-08-28T15:41:47.118Z,3.10
2022-08-28T15:44:18.191Z,6.00
2022-08-28T15:47:06.372Z,3.10
2022-08-28T15:49:49.670Z,4.30
2022-08-28T15:52:26.908Z,4.90
2022-08-28T15:54:58.988Z,4.40
2022-08-28T15:57:31.031Z,6.10
2022-08-28T16:00:09.779Z,6.60
2022-08-28T16:02:44.877Z,4.30
2022-08-28T16:05:19.216Z,5.40
2022-08-28T16:07:57.438Z,5.50
2022-08-28T16:10:26.352Z,4.80
2022-08-28T16:12:57.440Z,5.10
2022-08-28T16:15:27.286Z,3.40
2022-08-28T16:17:59.254Z,3.70
2022-08-28T16:20:39.369Z,3.50
2022-08-28T16:23:11.978Z,6.10
2022-08-28T16:25:43.360Z,6.10
2022-08-28T16:28:14.837Z,6.10
2022-08-28T16:30:46.967Z,6.60
2022-08-28T16:33:21.161Z,5.40
2022-08-28T16:36:02.183Z,6.30
2022-08-28T16:38:35.326Z,5.50
2022-08-28T16:41:16.486Z,5.50
2022-08-28T16:44:05.567Z,5.90
2022-08-28T16:46:34.634Z,6.50
2022-08-28T16:49:06.467Z,5.20
2022-08-28T16:51:48.503Z,7.50
2022-08-28T16:54:24.991Z,4.90
2022-08-28T16:57:06.786Z,6.70
2022-08-28T16:59:53.149Z,6.10
2022-08-28T17:02:26.701Z,5.40
2022-08-28T17:05:00.590Z,4.40
2022-08-28T17:07:35.652Z,7.00
2022-08-28T17:10:09.254Z,7.40
2022-08-28T17:12:50.021Z,4.80
2022-08-28T17:15:31.523Z,6.50
2022-08-28T17:18:12.332Z,6.90
2022-08-28T17:21:06.333Z,8.00
2022-08-28T17:23:50.173Z,6.40
2022-08-28T17:26:22.341Z,5.80
2022-08-28T17:29:01.984Z,6.00
2022-08-28T17:31:51.392Z,7.70
2022-08-28T17:34:25.767Z,7.10
2022-08-28T17:37:07.363Z,7.50
2022-08-28T17:39:43.934Z,8.20
2022-08-28T17:42:39.756Z,8.10
2022-08-28T17:45:24.165Z,10.70
2022-08-28T17:48:05.496Z,9.30
2022-08-28T17:50:51.485Z,8.50
2022-08-28T17:53:46.998Z,8.50
2022-08-28T17:56:16.299Z,6.80
2022-08-28T17:58:45.710Z,8.00
2022-08-28T18:01:22.009Z,9.00
2022-08-28T18:03:53.126Z,7.00
2022-08-28T18:06:25.279Z,9.70
2022-08-28T18:08:54.680Z,7.50
2022-08-28T18:14:20.455Z,8.10
2022-08-28T18:17:34.776Z,8.50
2022-08-28T18:20:12.469Z,8.30
2022-08-28T18:22:47.435Z,7.70
2022-08-28T18:25:40.591Z,5.30
2022-08-28T18:28:39.867Z,7.10
2022-08-28T18:31:38.591Z,7.20
2022-08-28T18:34:33.276Z,7.80
2022-08-28T18:37:12.611Z,6.70
2022-08-28T18:40:04.425Z,7.20
2022-08-28T18:42:41.872Z,8.40
2022-08-28T18:45:31.995Z,8.50
2022-08-28T18:48:46.772Z,7.10
2022-08-28T18:51:24.048Z,8.00
2022-08-28T18:54:01.726Z,7.10
2022-08-28T18:56:33.729Z,6.50
2022-08-28T18:59:10.482Z,7.90
2022-08-28T19:01:39.857Z,5.80
2022-08-28T19:04:20.104Z,6.30
2022-08-28T19:06:51.722Z,6.90
2022-08-28T19:09:46.708Z,7.30
2022-08-28T19:12:18.744Z,7.60
2022-08-28T19:15:18.389Z,6.30
2022-08-28T19:18:01.577Z,5.50
2022-08-28T19:20:39.089Z,6.40
2022-08-28T19:23:22.090Z,7.50
2022-08-28T19:26:01.179Z,8.20
2022-08-28T19:28:50.823Z,6.40
2022-08-28T19:31:31.095Z,11.60
2022-08-28T19:34:11.440Z,5.00
2022-08-28T19:36:48.181Z,8.30
2022-08-28T19:39:32.874Z,7.40
2022-08-28T19:42:17.974Z,6.90
2022-08-28T19:45:18.580Z,5.70
2022-08-28T19:50:25.752Z,5.20
2022-08-28T19:53:06.537Z,6.80
2022-08-28T19:55:38.233Z,9.20
2022-08-28T19:58:12.544Z,9.90
2022-08-28T20:00:53.885Z,7.60
2022-08-28T20:03:30.689Z,9.00
2022-08-28T20:06:14.766Z,8.20
2022-08-28T20:08:50.020Z,6.70
2022-08-28T20:11:47.758Z,8.80
2022-08-28T20:14:47.686Z,8.60
2022-08-28T20:17:31.188Z,7.10
2022-08-28T20:20:08.569Z,7.90
2022-08-28T20:22:43.618Z,7.50
2022-08-28T20:25:36.781Z,7.90
2022-08-28T20:28:34.948Z,9.90
2022-08-28T20:31:36.504Z,11.40
2022-08-28T20:34:32.944Z,8.70
2022-08-28T20:37:11.399Z,6.80
2022-08-28T20:39:58.538Z,8.50
2022-08-28T20:42:35.987Z,8.40
2022-08-28T20:45:09.363Z,7.30
2022-08-28T20:47:44.935Z,12.30
2022-08-28T20:50:15.540Z,6.40
2022-08-28T20:52:48.139Z,10.10
2022-08-28T20:55:20.289Z,8.60
2022-08-28T20:57:52.543Z,9.40
2022-08-28T21:00:30.276Z,7.80
2022-08-28T21:03:02.372Z,8.60
2022-08-28T21:05:47.267Z,9.00
2022-08-28T21:08:18.017Z,6.50
2022-08-28T21:10:54.495Z,7.70
2022-08-28T21:13:39.862Z,8.90
2022-08-28T21:16:11.702Z,8.60
2022-08-28T21:18:59.284Z,7.60
2022-08-28T21:21:32.599Z,10.30
2022-08-28T21:24:03.467Z,8.80
2022-08-28T21:26:45.634Z,9.40
2022-08-28T21:29:25.430Z,10.10
2022-08-28T21:31:57.458Z,10.00
2022-08-28T21:34:36.523Z,9.40
2022-08-28T21:37:06.705Z,8.00
2022-08-28T21:39:51.001Z,6.80
2022-08-28T21:42:22.440Z,9.90
2022-08-28T21:44:54.687Z,12.10
2022-08-28T21:47:38.382Z,8.80
2022-08-28T21:50:18.342Z,9.40
2022-08-28T21:52:49.984Z,6.80
2022-08-28T21:55:18.648Z,10.00
2022-08-28T21:57:59.590Z,10.30
2022-08-28T22:00:33.839Z,10.20
2022-08-28T22:03:02.919Z,8.40
2022-08-28T22:05:37.317Z,10.10
2022-08-28T22:08:06.309Z,10.80
2022-08-28T22:10:40.483Z,7.20
2022-08-28T22:13:17.024Z,10.00
2022-08-28T22:15:54.007Z,7.40
2022-08-28T22:18:32.074Z,8.10
2022-08-28T22:21:25.277Z,9.60
2022-08-28T22:24:03.925Z,7.60
2022-08-28T22:26:35.679Z,9.20
2022-08-28T22:29:27.715Z,11.30
2022-08-28T22:31:56.760Z,11.70
2022-08-28T22:34:49.562Z,7.70
2022-08-28T22:37:18.283Z,11.30
2022-08-28T22:39:52.525Z,12.40
2022-08-28T22:42:21.312Z,9.20
2022-08-28T22:44:53.179Z,10.10
2022-08-28T22:47:21.975Z,7.30
2022-08-28T22:49:56.183Z,7.20
2022-08-28T22:52:33.020Z,8.80
2022-08-28T22:55:12.520Z,7.30
2022-08-28T22:57:44.983Z,8.20
2022-08-28T23:00:20.498Z,9.60
2022-08-28T23:02:58.394Z,7.60
2022-08-28T23:05:29.195Z,6.80
2022-08-28T23:07:57.847Z,9.10
2022-08-28T23:10:55.588Z,8.90
2022-08-28T23:13:45.388Z,9.00
2022-08-28T23:16:24.263Z,6.80
2022-08-28T23:19:09.036Z,8.20
2022-08-28T23:21:44.017Z,9.40
2022-08-28T23:24:25.449Z,7.90
2022-08-28T23:27:35.745Z,7.70
2022-08-28T23:30:20.989Z,9.00
2022-08-28T23:33:04.178Z,6.90
2022-08-28T23:35:43.766Z,8.30
2022-08-28T23:38:45.251Z,8.00
2022-08-28T23:41:32.065Z,11.50
2022-08-28T23:44:12.217Z,10.60
2022-08-28T23:46:46.858Z,7.00
2022-08-28T23:49:26.243Z,12.00
2022-08-28T23:52:07.723Z,9.00
2022-08-28T23:54:46.821Z,9.90
2022-08-28T23:59:54.374Z,11.20
